< < Back
Terminal Aerodrome Forecast


Current Version              Previous Versions:   1  2  3  4  5  6  7  8  9  

Terminal Aerodrome Forecast

882
FTUS42 KTAE 262300
TAFTLH
TAF
KTLH 262334Z 2700/2724 00000KT P6SM SKC
     FM270900 32005KT P6SM SKC
     FM271400 32010G20KT P6SM SKC=

Latest METAR

703
SAUS80 KWBC 270956
MTRTLH
METAR KTLH 270953Z AUTO 00000KT 10SM CLR 04/02 A3021 RMK AO2 SLP230
T00440017 $


USA.gov is the U.S. government's official web portal to all federal, state and local government web resources and services.